Time;durP1;ratioP1;P1;durP2;ratioP2;P2;SDS_P1;SDS_P2;PMS_P1;PMS_P2;Temp;Humidity;BMP_temperature;BMP_pressure;BME280_temperature;BME280_humidity;BME280_pressure;Samples;Min_cycle;Max_cycle;Signal;HPM_P1;HPM_P2
2023/08/13 00:01:34;;;;;;;5.33;4.83;;;15.50;99.90;;;;;;5058229;28;20565;-64
2023/08/13 00:04:02;;;;;;;6.13;4.63;;;15.50;99.90;;;;;;5055740;28;20473;-65
2023/08/13 00:06:30;;;;;;;7.20;5.27;;;15.50;99.90;;;;;;5056406;28;20860;-66
2023/08/13 00:08:58;;;;;;;6.30;5.17;;;15.50;99.90;;;;;;5056985;28;20473;-65
2023/08/13 00:11:27;;;;;;;9.33;5.37;;;15.50;99.90;;;;;;5056624;28;20470;-65
2023/08/13 00:13:55;;;;;;;5.93;5.20;;;15.50;99.90;;;;;;5059891;28;20526;-63
2023/08/13 00:16:24;;;;;;;4.83;4.40;;;15.50;99.90;;;;;;5052256;28;20514;-66
2023/08/13 00:18:52;;;;;;;8.07;5.50;;;15.50;99.90;;;;;;5057103;28;20936;-65
2023/08/13 00:21:20;;;;;;;6.23;5.50;;;15.50;99.90;;;;;;5056210;28;20549;-64
2023/08/13 00:23:50;;;;;;;7.70;5.37;;;15.50;99.90;;;;;;5058201;28;20497;-66
2023/08/13 00:26:18;;;;;;;7.83;5.20;;;15.50;99.90;;;;;;5058205;28;20956;-63
2023/08/13 00:28:46;;;;;;;6.50;4.77;;;15.50;99.90;;;;;;5056026;28;20494;-65
2023/08/13 00:31:14;;;;;;;4.63;4.23;;;15.50;99.90;;;;;;5059661;28;20955;-63
2023/08/13 00:33:44;;;;;;;4.97;4.53;;;15.50;99.90;;;;;;5059401;28;20508;-65
2023/08/13 00:36:12;;;;;;;5.10;4.60;;;15.50;99.90;;;;;;5054356;28;20481;-65
2023/08/13 00:38:40;;;;;;;7.57;4.53;;;15.50;99.90;;;;;;5055318;28;20975;-66
2023/08/13 00:41:08;;;;;;;4.93;4.40;;;15.50;99.90;;;;;;5056557;28;21048;-64
2023/08/13 00:43:37;;;;;;;6.40;5.10;;;15.50;99.90;;;;;;5058380;28;20945;-65
2023/08/13 00:46:05;;;;;;;5.23;4.30;;;15.50;99.90;;;;;;5049277;28;20493;-65
2023/08/13 00:48:33;;;;;;;9.63;4.47;;;15.50;99.90;;;;;;5054914;28;20471;-64
2023/08/13 00:51:04;;;;;;;5.47;4.97;;;15.50;99.90;;;;;;5056245;28;21057;-66
2023/08/13 00:53:35;;;;;;;6.33;4.77;;;15.50;99.90;;;;;;5051322;28;20486;-65
2023/08/13 00:56:04;;;;;;;5.30;4.50;;;15.50;99.90;;;;;;5051697;28;20493;-65
2023/08/13 00:58:32;;;;;;;8.43;4.80;;;15.50;99.90;;;;;;5047676;28;20497;-66
2023/08/13 01:01:00;;;;;;;9.10;4.20;;;15.50;99.90;;;;;;5051670;28;20549;-65
2023/08/13 01:03:28;;;;;;;4.70;4.23;;;15.40;99.90;;;;;;5049625;28;20999;-63
2023/08/13 01:06:03;;;;;;;6.77;5.10;;;15.50;99.90;;;;;;5052942;28;20990;-65
2023/08/13 01:08:42;;;;;;;5.10;4.57;;;15.40;99.90;;;;;;5050367;28;20551;-67
2023/08/13 01:11:17;;;;;;;5.20;4.17;;;15.40;99.90;;;;;;5046218;28;20466;-63
2023/08/13 01:13:53;;;;;;;4.40;3.97;;;15.40;99.90;;;;;;5053465;28;20592;-64
2023/08/13 01:16:22;;;;;;;4.73;3.77;;;15.40;99.90;;;;;;5050807;28;20495;-64
2023/08/13 01:18:50;;;;;;;4.90;4.33;;;15.40;99.90;;;;;;5050263;28;20496;-64
2023/08/13 01:21:18;;;;;;;4.53;4.10;;;15.40;99.90;;;;;;5052303;28;20482;-63
2023/08/13 01:23:48;;;;;;;6.67;4.47;;;15.30;99.90;;;;;;5051469;28;21116;-64
2023/08/13 01:26:20;;;;;;;6.67;4.27;;;15.30;99.90;;;;;;5050917;28;20486;-64
2023/08/13 01:28:55;;;;;;;6.93;4.30;;;15.30;99.90;;;;;;5049049;28;20481;-64
2023/08/13 01:31:29;;;;;;;4.70;4.10;;;15.30;99.90;;;;;;5049408;28;20498;-64
2023/08/13 01:33:59;;;;;;;4.07;3.67;;;15.30;99.90;;;;;;5049570;28;20471;-64
2023/08/13 01:36:27;;;;;;;5.50;4.23;;;15.30;99.90;;;;;;5052889;28;20486;-65
2023/08/13 01:38:59;;;;;;;7.60;4.33;;;15.30;99.90;;;;;;5048848;28;20560;-64
2023/08/13 01:41:36;;;;;;;5.10;3.80;;;15.30;99.90;;;;;;5050916;28;20462;-63
2023/08/13 01:44:04;;;;;;;4.80;3.93;;;15.20;99.90;;;;;;5050734;28;20893;-65
2023/08/13 01:46:32;;;;;;;4.53;4.10;;;15.20;99.90;;;;;;5051578;28;20497;-64
2023/08/13 01:49:00;;;;;;;5.10;3.90;;;15.20;99.90;;;;;;5051517;28;21153;-66
2023/08/13 01:51:28;;;;;;;4.10;3.40;;;15.20;99.90;;;;;;5052902;28;20466;-64
2023/08/13 01:53:58;;;;;;;4.40;3.97;;;15.20;99.90;;;;;;5050911;28;20596;-65
2023/08/13 01:56:26;;;;;;;4.33;3.90;;;15.20;99.90;;;;;;5051282;28;20503;-64
2023/08/13 01:58:54;;;;;;;4.17;3.77;;;15.20;99.90;;;;;;5053503;28;20466;-63
2023/08/13 02:01:22;;;;;;;4.90;3.90;;;15.20;99.90;;;;;;5052220;28;20474;-65
2023/08/13 02:03:50;;;;;;;5.17;4.07;;;15.30;99.90;;;;;;5053116;28;20478;-66
2023/08/13 02:06:18;;;;;;;4.53;4.13;;;15.30;99.90;;;;;;5051241;28;20625;-64
2023/08/13 02:08:46;;;;;;;6.83;4.57;;;15.30;99.90;;;;;;5045545;28;20886;-64
2023/08/13 02:11:15;;;;;;;5.30;4.83;;;15.30;99.90;;;;;;5054947;28;20486;-63
2023/08/13 02:13:43;;;;;;;5.13;4.63;;;15.30;99.90;;;;;;5048600;28;20616;-66
2023/08/13 02:16:11;;;;;;;5.60;4.07;;;15.30;99.90;;;;;;5048178;28;21046;-66
2023/08/13 02:18:39;;;;;;;5.47;4.00;;;15.30;99.90;;;;;;5051334;28;20472;-64
2023/08/13 02:21:07;;;;;;;5.90;4.93;;;15.30;99.90;;;;;;5049669;28;20560;-64
2023/08/13 02:23:35;;;;;;;6.57;4.70;;;15.30;99.90;;;;;;5052254;28;20574;-64
2023/08/13 02:26:03;;;;;;;8.37;5.87;;;15.40;99.90;;;;;;5051434;28;20951;-66
2023/08/13 02:28:33;;;;;;;6.90;4.60;;;15.40;99.90;;;;;;5054242;28;20471;-63
2023/08/13 02:31:00;;;;;;;6.00;5.00;;;15.40;99.90;;;;;;5044189;28;20481;-65
2023/08/13 02:33:28;;;;;;;6.07;5.20;;;15.40;99.90;;;;;;5051040;28;20496;-64
2023/08/13 02:35:56;;;;;;;9.60;5.30;;;15.40;99.90;;;;;;5055015;28;20575;-65
2023/08/13 02:38:24;;;;;;;6.30;5.67;;;15.40;99.90;;;;;;5057569;28;20498;-64
2023/08/13 02:40:52;;;;;;;6.10;5.17;;;15.40;99.90;;;;;;5050077;28;20474;-64
2023/08/13 02:43:20;;;;;;;5.33;4.83;;;15.50;99.90;;;;;;5048373;28;20501;-65
2023/08/13 02:45:50;;;;;;;6.83;4.60;;;15.50;99.90;;;;;;5051811;28;21086;-65
2023/08/13 02:48:18;;;;;;;6.27;4.87;;;15.50;99.90;;;;;;5057946;28;20717;-63
2023/08/13 02:50:46;;;;;;;6.33;5.10;;;15.50;99.90;;;;;;5050440;28;20489;-64
2023/08/13 02:53:14;;;;;;;6.43;5.10;;;15.50;99.90;;;;;;5051756;28;20520;-66
2023/08/13 02:55:42;;;;;;;5.53;4.93;;;15.50;99.90;;;;;;5055142;28;20541;-65
2023/08/13 02:58:10;;;;;;;5.67;4.37;;;15.50;99.90;;;;;;5052672;28;20826;-65
2023/08/13 03:00:38;;;;;;;7.10;5.27;;;15.50;99.90;;;;;;5054752;28;20908;-63
2023/08/13 03:03:07;;;;;;;7.80;5.40;;;15.50;99.90;;;;;;5049949;28;21057;-64
2023/08/13 03:05:38;;;;;;;5.60;5.10;;;15.50;99.90;;;;;;5054398;28;20529;-63
2023/08/13 03:08:06;;;;;;;8.83;5.20;;;15.50;99.90;;;;;;5055406;28;20500;-64
2023/08/13 03:10:34;;;;;;;5.87;5.37;;;15.40;99.90;;;;;;5054362;28;20976;-64
2023/08/13 03:13:02;;;;;;;5.20;4.70;;;15.40;99.90;;;;;;5054231;28;20562;-64
2023/08/13 03:15:30;;;;;;;7.00;5.80;;;15.40;99.90;;;;;;5053521;28;21007;-63
2023/08/13 03:17:58;;;;;;;7.80;5.43;;;15.30;99.90;;;;;;5053890;28;21075;-65
2023/08/13 03:20:28;;;;;;;7.30;5.00;;;15.30;99.90;;;;;;5055794;28;20462;-65
2023/08/13 03:22:56;;;;;;;5.97;5.07;;;15.30;99.90;;;;;;5051979;28;20995;-65
2023/08/13 03:25:24;;;;;;;7.10;5.13;;;15.30;99.90;;;;;;5052752;28;20493;-66
2023/08/13 03:27:52;;;;;;;5.33;4.67;;;15.30;99.90;;;;;;5056117;28;21022;-64
2023/08/13 03:30:20;;;;;;;7.17;4.60;;;15.30;99.90;;;;;;5052109;28;20466;-64
2023/08/13 03:32:48;;;;;;;7.93;5.13;;;15.20;99.90;;;;;;5050347;28;21175;-64
2023/08/13 03:35:16;;;;;;;6.70;4.23;;;15.20;99.90;;;;;;5051009;28;20560;-65
2023/08/13 03:37:45;;;;;;;7.40;4.10;;;15.20;99.90;;;;;;5056250;28;20462;-64
2023/08/13 03:40:13;;;;;;;6.50;4.37;;;15.20;99.90;;;;;;5054285;28;20485;-65
2023/08/13 03:42:42;;;;;;;5.30;4.27;;;15.20;99.90;;;;;;5050481;28;20502;-65
2023/08/13 03:45:10;;;;;;;7.43;4.20;;;15.10;99.90;;;;;;5044202;28;21198;-65
2023/08/13 03:47:38;;;;;;;5.63;3.80;;;15.10;99.90;;;;;;5052867;28;21100;-64
2023/08/13 03:50:06;;;;;;;5.10;4.00;;;15.10;99.90;;;;;;5052987;28;20997;-64
2023/08/13 03:52:35;;;;;;;6.17;4.50;;;15.10;99.90;;;;;;5051763;28;20576;-64
2023/08/13 03:55:05;;;;;;;5.60;4.10;;;15.10;99.90;;;;;;5053594;28;20482;-63
2023/08/13 03:57:33;;;;;;;4.83;4.17;;;15.10;99.90;;;;;;5055050;28;20548;-63
2023/08/13 04:00:00;;;;;;;4.90;3.67;;;15.10;99.90;;;;;;5051189;28;20924;-63
2023/08/13 04:02:33;;;;;;;4.50;4.10;;;15.10;99.90;;;;;;5054503;28;20515;-65
2023/08/13 04:05:04;;;;;;;4.50;4.00;;;15.10;99.90;;;;;;5054225;28;21020;-64
2023/08/13 04:07:32;;;;;;;4.07;3.50;;;15.10;99.90;;;;;;5056561;28;20492;-65
2023/08/13 04:10:00;;;;;;;5.53;4.23;;;15.00;99.90;;;;;;5052099;28;20548;-63
2023/08/13 04:12:30;;;;;;;5.33;3.87;;;15.00;99.90;;;;;;5055455;28;21067;-63
2023/08/13 04:14:58;;;;;;;5.30;3.53;;;15.00;99.90;;;;;;5049569;28;20477;-63
2023/08/13 04:17:26;;;;;;;5.90;3.80;;;15.00;99.90;;;;;;5053694;28;20465;-65
2023/08/13 04:19:53;;;;;;;7.00;4.20;;;15.10;99.90;;;;;;5053633;28;20473;-64
2023/08/13 04:22:21;;;;;;;4.47;3.90;;;15.10;99.90;;;;;;5054775;28;20575;-65
2023/08/13 04:24:50;;;;;;;6.13;3.80;;;15.00;99.90;;;;;;5051455;28;20728;-65
2023/08/13 04:27:18;;;;;;;5.60;4.20;;;15.10;99.90;;;;;;5053402;28;20492;-65
2023/08/13 04:29:48;;;;;;;5.73;4.70;;;15.10;99.90;;;;;;5056729;28;20462;-65
2023/08/13 04:32:16;;;;;;;5.53;5.03;;;15.00;99.90;;;;;;5054418;28;20512;-65
2023/08/13 04:34:44;;;;;;;5.13;4.33;;;15.10;99.90;;;;;;5051002;28;20477;-64
2023/08/13 04:37:12;;;;;;;6.13;4.83;;;15.10;99.90;;;;;;5055487;28;20554;-65
2023/08/13 04:39:40;;;;;;;11.20;5.30;;;15.10;99.90;;;;;;5052552;28;20470;-66
2023/08/13 04:42:08;;;;;;;6.17;4.67;;;15.10;99.90;;;;;;5050135;28;20501;-63
2023/08/13 04:44:36;;;;;;;6.30;4.60;;;15.20;99.90;;;;;;5050162;28;20523;-63
2023/08/13 04:47:06;;;;;;;9.27;5.00;;;15.20;99.90;;;;;;5053479;28;20920;-64
2023/08/13 04:49:34;;;;;;;5.40;5.00;;;15.20;99.90;;;;;;5053297;28;21058;-64
2023/08/13 04:52:02;;;;;;;6.27;4.80;;;15.30;99.90;;;;;;5053672;28;20501;-64
2023/08/13 04:54:30;;;;;;;6.47;4.60;;;15.30;99.90;;;;;;5051234;28;20941;-64
2023/08/13 04:56:58;;;;;;;5.93;4.73;;;15.30;99.90;;;;;;5052807;28;20561;-63
2023/08/13 04:59:26;;;;;;;7.37;5.27;;;15.30;99.90;;;;;;5048257;28;20466;-64
2023/08/13 05:01:54;;;;;;;7.17;5.00;;;15.40;99.90;;;;;;5054349;28;20521;-63
2023/08/13 05:04:23;;;;;;;5.80;4.67;;;15.40;99.90;;;;;;5048319;28;20570;-65
2023/08/13 05:06:51;;;;;;;5.77;4.70;;;15.40;99.90;;;;;;5048757;28;20994;-66
2023/08/13 05:09:19;;;;;;;6.60;4.87;;;15.50;99.90;;;;;;5052832;28;20578;-65
2023/08/13 05:11:47;;;;;;;5.13;4.60;;;15.50;99.90;;;;;;5053215;28;20548;-63
2023/08/13 05:14:15;;;;;;;6.50;4.97;;;15.50;99.90;;;;;;5051602;28;20467;-65
2023/08/13 05:16:43;;;;;;;8.57;4.77;;;15.60;99.90;;;;;;5053094;28;20573;-65
2023/08/13 05:19:11;;;;;;;6.00;5.17;;;15.60;99.90;;;;;;5053941;28;20474;-66
2023/08/13 05:21:40;;;;;;;5.57;4.47;;;15.60;99.90;;;;;;5053833;28;20466;-64
2023/08/13 05:24:09;;;;;;;4.40;4.00;;;15.70;99.90;;;;;;5052284;28;20848;-65
2023/08/13 05:26:37;;;;;;;5.90;4.80;;;15.70;99.90;;;;;;5046035;28;20486;-63
2023/08/13 05:29:05;;;;;;;5.63;4.80;;;15.80;99.90;;;;;;5049607;28;21010;-63
2023/08/13 05:31:33;;;;;;;6.93;4.93;;;15.80;99.90;;;;;;5047319;28;20476;-64
2023/08/13 05:34:01;;;;;;;5.73;5.13;;;15.90;99.90;;;;;;5044752;28;20465;-65
2023/08/13 05:36:29;;;;;;;5.90;4.40;;;15.90;99.90;;;;;;5044081;28;20489;-64
2023/08/13 05:39:00;;;;;;;8.17;5.17;;;15.90;99.90;;;;;;5051172;28;20465;-66
2023/08/13 05:41:28;;;;;;;6.60;4.63;;;16.00;99.90;;;;;;5046244;28;20547;-65
2023/08/13 05:43:56;;;;;;;5.13;4.63;;;16.00;99.90;;;;;;5047582;28;20477;-64
2023/08/13 05:46:24;;;;;;;6.50;4.50;;;16.00;99.90;;;;;;5045427;28;20486;-65
2023/08/13 05:48:52;;;;;;;7.40;5.10;;;16.00;99.90;;;;;;5049685;28;20521;-64
2023/08/13 05:51:21;;;;;;;5.00;4.60;;;16.10;99.90;;;;;;5047494;28;20470;-64
2023/08/13 05:53:49;;;;;;;6.53;4.50;;;16.10;99.90;;;;;;5047263;28;20935;-64
2023/08/13 05:56:18;;;;;;;6.47;5.13;;;16.20;99.90;;;;;;5047903;28;20539;-65
2023/08/13 05:58:46;;;;;;;5.10;4.47;;;16.20;99.90;;;;;;5044826;28;21073;-68
2023/08/13 06:01:14;;;;;;;6.77;4.70;;;16.20;99.90;;;;;;5039109;28;20475;-66
2023/08/13 06:03:42;;;;;;;6.13;4.57;;;16.30;99.90;;;;;;5048019;28;20490;-67
2023/08/13 06:06:10;;;;;;;5.27;4.73;;;16.30;99.90;;;;;;5045914;28;20989;-63
2023/08/13 06:08:38;;;;;;;6.13;4.43;;;16.40;99.90;;;;;;5050296;28;20870;-63
2023/08/13 06:11:06;;;;;;;7.63;5.20;;;16.40;99.90;;;;;;5058138;28;20564;-62
2023/08/13 06:13:38;;;;;;;8.97;4.80;;;16.50;99.90;;;;;;5057865;28;20544;-64
2023/08/13 06:16:07;;;;;;;5.50;5.00;;;16.60;99.90;;;;;;5052214;28;20489;-64
2023/08/13 06:18:35;;;;;;;6.33;4.63;;;16.60;99.90;;;;;;5050727;28;20462;-63
2023/08/13 06:21:03;;;;;;;6.50;4.50;;;16.60;99.90;;;;;;5059708;28;20552;-63
2023/08/13 06:23:32;;;;;;;4.67;4.10;;;16.70;99.90;;;;;;5057363;28;20484;-63
2023/08/13 06:26:00;;;;;;;5.90;4.07;;;16.70;99.90;;;;;;5043772;28;20928;-66
2023/08/13 06:28:28;;;;;;;6.07;4.43;;;16.70;99.90;;;;;;5038743;28;20500;-66
2023/08/13 06:30:57;;;;;;;6.80;5.40;;;16.70;99.90;;;;;;5018786;28;20923;-66
2023/08/13 06:33:25;;;;;;;6.83;4.67;;;16.80;99.90;;;;;;5028534;28;20493;-67
2023/08/13 06:35:53;;;;;;;6.97;4.30;;;16.80;99.90;;;;;;5043530;28;20493;-66
2023/08/13 06:38:23;;;;;;;7.03;5.27;;;16.90;99.90;;;;;;5046662;28;20646;-66
2023/08/13 06:40:51;;;;;;;7.10;4.67;;;16.90;99.90;;;;;;5043684;28;20468;-67
2023/08/13 06:43:19;;;;;;;5.43;4.90;;;17.00;99.90;;;;;;5039314;28;20508;-66
2023/08/13 06:45:47;;;;;;;5.00;4.50;;;17.00;99.90;;;;;;5039855;28;20521;-66
2023/08/13 06:48:17;;;;;;;9.60;4.90;;;17.10;99.90;;;;;;5037649;28;20470;-66
2023/08/13 06:50:48;;;;;;;4.27;3.83;;;17.20;99.90;;;;;;5045178;28;20560;-67
2023/08/13 06:53:16;;;;;;;5.70;4.30;;;17.30;99.90;;;;;;5042558;28;20554;-67
2023/08/13 06:55:44;;;;;;;5.90;4.30;;;17.40;99.90;;;;;;5046939;28;21046;-67
2023/08/13 06:58:12;;;;;;;5.90;4.07;;;17.50;99.90;;;;;;5042948;28;20557;-66
2023/08/13 07:00:41;;;;;;;7.40;4.43;;;17.50;99.90;;;;;;5037350;28;20674;-66
2023/08/13 07:03:10;;;;;;;8.93;4.17;;;17.60;99.90;;;;;;5034109;28;20507;-66
2023/08/13 07:05:40;;;;;;;6.93;4.20;;;17.70;99.90;;;;;;5043335;28;20481;-66
2023/08/13 07:08:10;;;;;;;6.50;4.00;;;17.70;99.90;;;;;;5045339;28;20489;-66
2023/08/13 07:10:40;;;;;;;5.93;4.60;;;17.80;99.90;;;;;;5046021;28;20866;-66
2023/08/13 07:13:08;;;;;;;5.33;4.10;;;17.80;99.90;;;;;;5043458;28;20555;-66
2023/08/13 07:15:36;;;;;;;5.23;3.80;;;17.90;99.90;;;;;;5036562;28;21147;-66
2023/08/13 07:18:05;;;;;;;5.63;3.70;;;18.00;99.90;;;;;;5049103;28;20462;-66
2023/08/13 07:20:33;;;;;;;6.73;3.97;;;18.00;99.90;;;;;;5046078;28;21068;-66
2023/08/13 07:23:04;;;;;;;7.83;4.70;;;18.10;99.90;;;;;;5039728;28;20603;-66
2023/08/13 07:25:35;;;;;;;5.57;3.80;;;18.10;99.90;;;;;;5040157;28;20566;-66
2023/08/13 07:28:06;;;;;;;4.00;3.60;;;18.20;99.90;;;;;;5043486;28;21182;-66
2023/08/13 07:30:34;;;;;;;4.67;3.67;;;18.30;99.90;;;;;;5034541;28;20494;-66
2023/08/13 07:33:02;;;;;;;5.30;3.60;;;18.30;99.90;;;;;;5039711;28;21013;-66
2023/08/13 07:35:30;;;;;;;5.70;3.97;;;18.40;99.90;;;;;;5036419;28;20492;-66
2023/08/13 07:37:58;;;;;;;5.43;3.40;;;18.50;99.90;;;;;;5036347;28;22573;-66
2023/08/13 07:40:27;;;;;;;8.03;4.37;;;18.60;99.90;;;;;;5039697;28;20993;-66
2023/08/13 07:42:59;;;;;;;7.77;3.57;;;18.70;99.90;;;;;;5002715;28;1132785;-66
2023/08/13 07:45:29;;;;;;;5.47;3.40;;;18.70;99.90;;;;;;5023484;28;20377;-66
2023/08/13 07:47:57;;;;;;;7.07;3.73;;;18.80;99.90;;;;;;5038028;28;20473;-66
2023/08/13 07:50:25;;;;;;;5.20;3.60;;;18.90;99.90;;;;;;5043859;28;20564;-67
2023/08/13 07:52:53;;;;;;;5.60;2.90;;;19.00;99.90;;;;;;5045668;28;20636;-66
2023/08/13 07:55:21;;;;;;;7.60;4.50;;;19.00;99.90;;;;;;5042255;28;20486;-66
2023/08/13 07:57:51;;;;;;;7.77;3.80;;;19.10;99.90;;;;;;5049812;28;20502;-65
2023/08/13 08:00:19;;;;;;;5.40;3.47;;;19.20;99.90;;;;;;5043483;28;20473;-66
2023/08/13 08:02:47;;;;;;;6.60;3.77;;;19.20;99.90;;;;;;5047745;28;21139;-66
2023/08/13 08:05:16;;;;;;;5.33;2.90;;;19.20;99.90;;;;;;5048059;28;21254;-66
2023/08/13 08:07:44;;;;;;;7.40;3.93;;;19.30;99.90;;;;;;5046021;28;20480;-65
2023/08/13 08:10:12;;;;;;;5.20;3.50;;;19.40;99.90;;;;;;5049743;28;20572;-66
2023/08/13 08:12:40;;;;;;;6.83;3.70;;;19.40;99.90;;;;;;5047846;28;20631;-66
2023/08/13 08:15:10;;;;;;;4.03;3.40;;;19.40;99.90;;;;;;5046498;28;20491;-66
2023/08/13 08:17:38;;;;;;;4.30;3.30;;;19.50;99.90;;;;;;5039402;28;20545;-66
2023/08/13 08:20:08;;;;;;;5.87;3.10;;;19.50;99.90;;;;;;5041738;28;20523;-66
2023/08/13 08:22:36;;;;;;;4.10;2.90;;;19.50;99.90;;;;;;5042644;28;21057;-66
2023/08/13 08:25:08;;;;;;;5.17;2.63;;;19.60;99.90;;;;;;5042221;28;20490;-66
2023/08/13 08:27:36;;;;;;;5.10;3.30;;;19.70;99.90;;;;;;5041424;28;20613;-66
2023/08/13 08:30:04;;;;;;;5.70;2.73;;;19.80;99.90;;;;;;5044569;28;21011;-66
2023/08/13 08:32:35;;;;;;;6.23;3.30;;;19.80;99.90;;;;;;5044897;28;20484;-66
2023/08/13 08:35:04;;;;;;;5.73;2.37;;;19.90;99.90;;;;;;5040508;28;20469;-66
2023/08/13 08:37:32;;;;;;;2.90;2.60;;;20.00;99.90;;;;;;5046861;28;20480;-66
2023/08/13 08:40:00;;;;;;;5.40;2.70;;;20.10;99.90;;;;;;5046577;28;20695;-66
2023/08/13 08:42:30;;;;;;;4.70;2.43;;;20.10;99.90;;;;;;5021947;28;20520;-63
2023/08/13 08:45:00;;;;;;;4.97;2.87;;;20.10;99.90;;;;;;5017224;28;20486;-63
2023/08/13 08:47:28;;;;;;;2.70;2.40;;;20.10;99.90;;;;;;5019707;28;20594;-63
2023/08/13 08:50:04;;;;;;;3.40;3.10;;;20.10;99.90;;;;;;5023224;28;20501;-63
2023/08/13 08:52:33;;;;;;;5.50;2.73;;;20.20;99.90;;;;;;5037901;28;20555;-63
2023/08/13 08:55:02;;;;;;;5.30;3.23;;;20.20;99.90;;;;;;5036703;28;20486;-63
2023/08/13 08:57:30;;;;;;;5.70;2.63;;;20.30;99.90;;;;;;5037853;28;20536;-64
2023/08/13 08:59:59;;;;;;;3.60;2.30;;;20.30;99.90;;;;;;5045181;28;20481;-63
2023/08/13 09:02:27;;;;;;;7.50;2.90;;;20.40;99.90;;;;;;5046678;28;20578;-63
2023/08/13 09:04:55;;;;;;;5.10;3.23;;;20.40;99.90;;;;;;5041441;28;20626;-63
2023/08/13 09:07:30;;;;;;;3.20;2.53;;;20.40;99.90;;;;;;5045398;28;20569;-63
2023/08/13 09:09:58;;;;;;;5.27;2.40;;;20.40;99.90;;;;;;5038841;28;20599;-62
2023/08/13 09:12:26;;;;;;;3.30;2.60;;;20.40;99.90;;;;;;5043981;28;20628;-63
2023/08/13 09:14:55;;;;;;;3.77;2.10;;;20.40;99.90;;;;;;5042246;28;20496;-63
2023/08/13 09:17:25;;;;;;;3.23;2.70;;;20.40;99.90;;;;;;5036923;28;20522;-62
2023/08/13 09:19:53;;;;;;;3.17;2.30;;;20.50;99.90;;;;;;5046011;28;20463;-63
2023/08/13 09:22:21;;;;;;;3.57;2.13;;;20.50;99.90;;;;;;5048876;28;20597;-63
2023/08/13 09:24:50;;;;;;;4.33;2.30;;;20.60;99.90;;;;;;5049512;28;20501;-63
2023/08/13 09:27:18;;;;;;;3.50;2.40;;;20.70;99.90;;;;;;5047430;28;20465;-63
2023/08/13 09:29:53;;;;;;;2.90;2.10;;;20.70;99.90;;;;;;5032781;28;20493;-63
2023/08/13 09:32:22;;;;;;;3.43;2.20;;;20.70;99.90;;;;;;5043157;28;20588;-63
2023/08/13 09:34:52;;;;;;;4.40;2.07;;;20.80;99.90;;;;;;5047095;28;20907;-63
2023/08/13 09:37:20;;;;;;;3.40;2.10;;;20.90;99.90;;;;;;5035378;28;20557;-62
2023/08/13 09:39:49;;;;;;;4.30;2.40;;;21.00;99.90;;;;;;5040961;28;21073;-62
2023/08/13 09:42:19;;;;;;;5.10;2.30;;;21.00;99.90;;;;;;5037458;28;20516;-62
2023/08/13 09:44:51;;;;;;;4.90;1.70;;;21.10;99.90;;;;;;5041886;28;20569;-62
2023/08/13 09:47:25;;;;;;;3.90;2.20;;;21.10;99.90;;;;;;5044728;28;20465;-63
2023/08/13 09:49:56;;;;;;;5.43;2.30;;;21.20;99.90;;;;;;5053441;28;20465;-62
2023/08/13 09:52:28;;;;;;;6.27;2.30;;;21.30;99.90;;;;;;5051236;28;20493;-62
2023/08/13 09:55:08;;;;;;;2.70;1.83;;;21.30;99.90;;;;;;5046634;28;20692;-62
2023/08/13 09:57:38;;;;;;;2.97;2.37;;;21.30;99.90;;;;;;5044279;28;20473;-62
2023/08/13 10:00:08;;;;;;;5.20;1.63;;;21.40;99.90;;;;;;5049087;28;20526;-62
2023/08/13 10:02:36;;;;;;;3.13;2.07;;;21.60;99.90;;;;;;5047186;28;20608;-62
2023/08/13 10:05:05;;;;;;;1.70;1.60;;;21.60;99.90;;;;;;5050446;28;20477;-63
2023/08/13 10:07:33;;;;;;;3.10;1.60;;;21.70;99.90;;;;;;5052032;28;21695;-63
2023/08/13 10:10:04;;;;;;;2.90;2.03;;;21.70;99.90;;;;;;5045039;28;20497;-62
2023/08/13 10:12:36;;;;;;;3.00;1.80;;;21.60;99.90;;;;;;5049552;28;21017;-63
2023/08/13 10:15:05;;;;;;;2.83;1.40;;;21.70;99.90;;;;;;5046406;28;20481;-62
2023/08/13 10:17:33;;;;;;;2.20;1.40;;;21.70;99.90;;;;;;5049958;28;20506;-64
2023/08/13 10:20:03;;;;;;;3.17;1.70;;;21.90;99.90;;;;;;5042204;28;21059;-63
2023/08/13 10:22:36;;;;;;;3.87;1.93;;;22.10;99.90;;;;;;5048582;28;20576;-63
2023/08/13 10:25:07;;;;;;;3.70;1.80;;;22.20;99.90;;;;;;5039053;28;20481;-65
2023/08/13 10:27:36;;;;;;;2.87;1.80;;;22.30;99.90;;;;;;5051905;28;20501;-64
2023/08/13 10:30:07;;;;;;;1.80;1.70;;;22.40;99.90;;;;;;5047466;28;20479;-64
2023/08/13 10:32:39;;;;;;;2.10;1.60;;;22.50;99.90;;;;;;5045571;28;22150;-64
2023/08/13 10:35:21;;;;;;;4.00;1.80;;;22.50;99.90;;;;;;5046227;28;20484;-64
2023/08/13 10:37:54;;;;;;;2.07;1.73;;;22.60;99.90;;;;;;5048457;28;21056;-65
2023/08/13 10:40:24;;;;;;;5.93;2.27;;;22.60;99.90;;;;;;5049946;28;20744;-63
2023/08/13 10:42:53;;;;;;;3.90;2.00;;;22.60;99.90;;;;;;5048227;28;20547;-63
2023/08/13 10:45:24;;;;;;;2.87;2.20;;;22.50;99.90;;;;;;5045332;28;20573;-63
2023/08/13 10:47:55;;;;;;;3.13;1.93;;;22.60;99.90;;;;;;5051412;28;20580;-63
2023/08/13 10:50:27;;;;;;;2.57;1.60;;;22.70;99.90;;;;;;5034795;28;20945;-63
2023/08/13 10:53:00;;;;;;;2.10;1.63;;;22.70;99.90;;;;;;5023035;28;20501;-67
2023/08/13 10:55:32;;;;;;;2.23;1.50;;;22.80;99.90;;;;;;5028681;28;20778;-68
2023/08/13 10:58:00;;;;;;;1.73;1.60;;;22.90;99.90;;;;;;5036951;28;20478;-67
2023/08/13 11:00:29;;;;;;;4.47;1.97;;;23.00;99.90;;;;;;5042456;28;20625;-67
2023/08/13 11:03:17;;;;;;;2.33;1.77;;;23.10;99.90;;;;;;5041021;28;20541;-67
2023/08/13 11:05:45;;;;;;;3.13;2.13;;;23.10;99.90;;;;;;5033792;28;20551;-67
2023/08/13 11:08:16;;;;;;;2.60;1.63;;;23.10;99.90;;;;;;5040816;28;20596;-67
2023/08/13 11:10:49;;;;;;;2.40;1.70;;;23.10;99.90;;;;;;5045046;28;20618;-67
2023/08/13 11:13:17;;;;;;;3.10;1.97;;;23.10;99.90;;;;;;5031274;28;21012;-67
2023/08/13 11:15:50;;;;;;;1.80;1.70;;;23.10;99.90;;;;;;5023441;28;20495;-66
2023/08/13 11:18:18;;;;;;;3.30;2.00;;;23.20;99.90;;;;;;5046076;28;20477;-67
2023/08/13 11:20:47;;;;;;;2.70;1.80;;;23.30;99.90;;;;;;5031241;28;20471;-69
2023/08/13 11:23:16;;;;;;;2.70;1.70;;;23.30;99.90;;;;;;5041878;28;20521;-66
2023/08/13 11:25:48;;;;;;;2.63;1.37;;;23.30;99.90;;;;;;5035110;28;21040;-67
2023/08/13 11:28:20;;;;;;;3.57;1.60;;;23.40;99.90;;;;;;5039395;28;20961;-66
2023/08/13 11:30:48;;;;;;;2.23;1.50;;;23.50;99.90;;;;;;5039655;28;20692;-65
2023/08/13 11:33:16;;;;;;;2.13;1.60;;;23.70;99.90;;;;;;5031031;28;21352;-67
2023/08/13 11:35:46;;;;;;;3.20;1.83;;;23.80;99.90;;;;;;5040191;28;20513;-67
2023/08/13 11:38:15;;;;;;;2.20;1.37;;;23.90;99.90;;;;;;5038256;28;20751;-69
2023/08/13 11:40:49;;;;;;;2.43;1.30;;;23.90;99.90;;;;;;5038619;28;21698;-69
2023/08/13 11:43:19;;;;;;;2.63;1.67;;;23.80;99.90;;;;;;5039454;28;20506;-71
2023/08/13 11:45:48;;;;;;;3.17;1.43;;;23.90;99.90;;;;;;5041456;28;20485;-70
2023/08/13 11:48:17;;;;;;;2.00;1.50;;;23.90;99.90;;;;;;5033392;28;20594;-69
2023/08/13 11:50:48;;;;;;;2.90;1.70;;;24.00;99.90;;;;;;5030882;28;20474;-68
2023/08/13 11:53:19;;;;;;;1.97;1.57;;;24.00;99.90;;;;;;5029035;28;20503;-67
2023/08/13 11:55:50;;;;;;;4.13;2.00;;;24.20;99.90;;;;;;5033896;28;20482;-66
2023/08/13 11:58:18;;;;;;;1.40;1.30;;;24.20;99.90;;;;;;5033016;28;20693;-69
2023/08/13 12:00:48;;;;;;;2.10;1.50;;;24.20;99.90;;;;;;5029988;28;21464;-69
2023/08/13 12:03:17;;;;;;;3.80;1.90;;;24.30;99.90;;;;;;5032074;28;26005;-67
2023/08/13 12:05:45;;;;;;;2.20;1.40;;;24.30;99.90;;;;;;5035498;28;20481;-68
2023/08/13 12:08:13;;;;;;;1.70;1.60;;;24.30;99.90;;;;;;5038221;28;20919;-66
2023/08/13 12:10:41;;;;;;;2.27;1.63;;;24.40;99.90;;;;;;5037844;28;20474;-67
2023/08/13 12:13:10;;;;;;;2.57;1.60;;;24.40;99.90;;;;;;5035721;28;21093;-67
2023/08/13 12:15:38;;;;;;;1.87;1.60;;;24.50;99.90;;;;;;5039451;28;20581;-67
2023/08/13 12:18:08;;;;;;;5.97;4.27;;;24.80;99.90;;;;;;5035612;28;21046;-68
2023/08/13 12:20:36;;;;;;;3.97;2.73;;;25.00;99.90;;;;;;5041638;28;20505;-67
2023/08/13 12:23:04;;;;;;;3.33;3.03;;;25.20;99.90;;;;;;5039621;28;21024;-67
2023/08/13 12:25:32;;;;;;;5.93;3.33;;;25.10;99.90;;;;;;5041732;28;20604;-66
2023/08/13 12:28:00;;;;;;;4.20;3.80;;;25.20;99.90;;;;;;5045755;28;20482;-69
2023/08/13 12:30:29;;;;;;;3.60;2.20;;;25.20;99.90;;;;;;5031218;28;20908;-68
2023/08/13 12:32:57;;;;;;;2.43;2.00;;;25.30;99.90;;;;;;5033498;28;20581;-60
2023/08/13 12:35:26;;;;;;;1.73;1.63;;;25.40;99.90;;;;;;5027165;28;20492;-60
2023/08/13 12:37:54;;;;;;;2.37;2.00;;;25.60;99.90;;;;;;5042185;28;20510;-59
2023/08/13 12:40:22;;;;;;;3.17;2.60;;;25.70;99.90;;;;;;5039135;28;20588;-59
2023/08/13 12:42:50;;;;;;;2.40;1.80;;;25.90;99.90;;;;;;5033882;28;21034;-60
2023/08/13 12:45:19;;;;;;;1.63;1.40;;;26.10;99.90;;;;;;5035780;28;20556;-60
2023/08/13 12:47:48;;;;;;;1.87;1.63;;;26.40;99.90;;;;;;5027176;28;20794;-61
2023/08/13 12:50:16;;;;;;;2.60;1.90;;;26.50;99.90;;;;;;5038306;28;20566;-60
2023/08/13 12:52:44;;;;;;;2.50;1.60;;;26.60;99.90;;;;;;5032262;28;21131;-60
2023/08/13 12:55:12;;;;;;;4.70;1.50;;;26.70;99.90;;;;;;5022418;28;20490;-61